EIN3RH EIDW-LSZH
Flight info
| Callsign | EIN3RH |
|---|---|
| Flight time | 1h 48m |
| Altitude | 33000 |
| Route | ENDEQ1E ENDEQ Q36 EPOXI L15 FINMA DCT CHT DCT ITVIP DCT KONAN UL607 KOK DCT CIV DCT SUTAL DCT GTQ DCT BAMEV DCT BLM BLM3G |
| Aircraft | A21N/M-SDE2E3FGHIJ1RWXY/LB1 |
Departure
| Time | 2026-05-07 14:44 |
|---|---|
| Airport | Dublin Airport (EIDW) |
Arrival
| Time | 2026-05-07 16:32 |
|---|---|
| Airport | Zürich Airport (LSZH) |
| Time | Latitude | Longitude | Altitude | Speed | Heading |
|---|---|---|---|---|---|
| 2026-05-07 14:01 | 53.42317 | -6.24252 | 216 ft | 0 kts | 316° |
| 2026-05-07 14:30 | 53.42317 | -6.24251 | 216 ft | 1 kts | 316° |
| 2026-05-07 14:30 | 53.42301 | -6.24221 | 219 ft | 4 kts | 301° |
| 2026-05-07 14:31 | 53.42292 | -6.24181 | 221 ft | 4 kts | 273° |
| 2026-05-07 14:31 | 53.42296 | -6.24140 | 216 ft | 4 kts | 240° |
| 2026-05-07 14:31 | 53.42313 | -6.24105 | 216 ft | 4 kts | 223° |
| 2026-05-07 14:31 | 53.42331 | -6.24077 | 216 ft | 2 kts | 227° |
| 2026-05-07 14:32 | 53.42331 | -6.24076 | 216 ft | 0 kts | 227° |
| 2026-05-07 14:34 | 53.42330 | -6.24077 | 216 ft | 1 kts | 227° |
| 2026-05-07 14:35 | 53.42316 | -6.24095 | 216 ft | 4 kts | 210° |
| 2026-05-07 14:35 | 53.42279 | -6.24119 | 218 ft | 7 kts | 197° |
| 2026-05-07 14:35 | 53.42225 | -6.24155 | 219 ft | 10 kts | 214° |
| 2026-05-07 14:35 | 53.42168 | -6.24243 | 220 ft | 12 kts | 238° |
| 2026-05-07 14:36 | 53.42162 | -6.24399 | 223 ft | 15 kts | 275° |
| 2026-05-07 14:36 | 53.42170 | -6.24545 | 216 ft | 10 kts | 276° |
| 2026-05-07 14:36 | 53.42171 | -6.24559 | 216 ft | 0 kts | 274° |
| 2026-05-07 14:37 | 53.42171 | -6.24565 | 216 ft | 2 kts | 274° |
| 2026-05-07 14:37 | 53.42178 | -6.24692 | 219 ft | 9 kts | 276° |
| 2026-05-07 14:37 | 53.42186 | -6.24808 | 216 ft | 11 kts | 274° |
| 2026-05-07 14:38 | 53.42192 | -6.24956 | 221 ft | 14 kts | 274° |
| 2026-05-07 14:38 | 53.42200 | -6.25132 | 216 ft | 16 kts | 276° |
| 2026-05-07 14:38 | 53.42213 | -6.25332 | 218 ft | 18 kts | 275° |
| 2026-05-07 14:38 | 53.42226 | -6.25556 | 216 ft | 20 kts | 275° |
| 2026-05-07 14:39 | 53.42238 | -6.25790 | 218 ft | 19 kts | 275° |
| 2026-05-07 14:39 | 53.42251 | -6.26027 | 219 ft | 21 kts | 275° |
| 2026-05-07 14:39 | 53.42266 | -6.26289 | 220 ft | 23 kts | 275° |
| 2026-05-07 14:39 | 53.42280 | -6.26567 | 223 ft | 25 kts | 275° |
| 2026-05-07 14:40 | 53.42295 | -6.26843 | 216 ft | 22 kts | 275° |
| 2026-05-07 14:40 | 53.42310 | -6.27106 | 221 ft | 24 kts | 275° |
| 2026-05-07 14:40 | 53.42326 | -6.27392 | 216 ft | 25 kts | 275° |
| 2026-05-07 14:40 | 53.42343 | -6.27698 | 216 ft | 27 kts | 276° |
| 2026-05-07 14:41 | 53.42360 | -6.28007 | 216 ft | 21 kts | 275° |
| 2026-05-07 14:41 | 53.42374 | -6.28267 | 216 ft | 23 kts | 275° |
| 2026-05-07 14:41 | 53.42390 | -6.28549 | 216 ft | 25 kts | 275° |
| 2026-05-07 14:41 | 53.42401 | -6.28754 | 216 ft | 18 kts | 275° |
| 2026-05-07 14:42 | 53.42411 | -6.28968 | 223 ft | 13 kts | 259° |
| 2026-05-07 14:42 | 53.42370 | -6.29067 | 219 ft | 12 kts | 208° |
| 2026-05-07 14:42 | 53.42284 | -6.29067 | 217 ft | 10 kts | 172° |
| 2026-05-07 14:42 | 53.42242 | -6.28985 | 215 ft | 9 kts | 96° |
| 2026-05-07 14:43 | 53.42241 | -6.28975 | 216 ft | 0 kts | 97° |
| 2026-05-07 14:43 | 53.42241 | -6.28973 | 216 ft | 4 kts | 97° |
| 2026-05-07 14:43 | 53.42214 | -6.28484 | 220 ft | 79 kts | 96° |
| 2026-05-07 14:43 | 53.42142 | -6.27205 | 215 ft | 140 kts | 96° |
| 2026-05-07 14:44 | 53.42063 | -6.25503 | 634 ft | 142 kts | 96° |
| 2026-05-07 14:44 | 53.41967 | -6.23847 | 1026 ft | 146 kts | 105° |
| 2026-05-07 14:44 | 53.41827 | -6.22110 | 1387 ft | 157 kts | 99° |
| 2026-05-07 14:44 | 53.41737 | -6.20160 | 1710 ft | 181 kts | 100° |
| 2026-05-07 14:45 | 53.41609 | -6.17937 | 2275 ft | 203 kts | 98° |
| 2026-05-07 14:45 | 53.41480 | -6.15453 | 2932 ft | 225 kts | 100° |
| 2026-05-07 14:45 | 53.41292 | -6.12680 | 3478 ft | 252 kts | 99° |
| 2026-05-07 14:45 | 53.41115 | -6.09624 | 4205 ft | 269 kts | 98° |
| 2026-05-07 14:46 | 53.40959 | -6.06517 | 5352 ft | 268 kts | 97° |
| 2026-05-07 14:46 | 53.40831 | -6.03384 | 6361 ft | 275 kts | 94° |
| 2026-05-07 14:46 | 53.41008 | -6.00134 | 7223 ft | 284 kts | 85° |
| 2026-05-07 14:46 | 53.41295 | -5.96830 | 8190 ft | 288 kts | 85° |
| 2026-05-07 14:47 | 53.41551 | -5.93483 | 9210 ft | 292 kts | 85° |
| 2026-05-07 14:47 | 53.41822 | -5.90079 | 10202 ft | 296 kts | 85° |
| 2026-05-07 14:47 | 53.42096 | -5.86513 | 10663 ft | 321 kts | 85° |
| 2026-05-07 14:47 | 53.42357 | -5.82731 | 11248 ft | 336 kts | 85° |
| 2026-05-07 14:48 | 53.42645 | -5.78808 | 12132 ft | 342 kts | 85° |
| 2026-05-07 14:48 | 53.42933 | -5.74817 | 13058 ft | 347 kts | 86° |
| 2026-05-07 14:48 | 53.43201 | -5.70715 | 13995 ft | 352 kts | 86° |
| 2026-05-07 14:48 | 53.43466 | -5.66615 | 14806 ft | 356 kts | 86° |
| 2026-05-07 14:49 | 53.43738 | -5.62461 | 15618 ft | 361 kts | 86° |
| 2026-05-07 14:49 | 53.44016 | -5.58250 | 16415 ft | 366 kts | 86° |
| 2026-05-07 14:49 | 53.44298 | -5.53971 | 17211 ft | 371 kts | 86° |
| 2026-05-07 14:49 | 53.44527 | -5.49694 | 17995 ft | 375 kts | 91° |
| 2026-05-07 14:50 | 53.44466 | -5.45303 | 18733 ft | 379 kts | 95° |
| 2026-05-07 14:50 | 53.44350 | -5.40873 | 19407 ft | 383 kts | 95° |
| 2026-05-07 14:50 | 53.44232 | -5.36377 | 20072 ft | 388 kts | 95° |
| 2026-05-07 14:50 | 53.44116 | -5.31837 | 20725 ft | 392 kts | 95° |
| 2026-05-07 14:51 | 53.44000 | -5.27256 | 21383 ft | 396 kts | 95° |
| 2026-05-07 14:51 | 53.43881 | -5.22621 | 22042 ft | 400 kts | 95° |
| 2026-05-07 14:51 | 53.43759 | -5.17931 | 22693 ft | 404 kts | 95° |
| 2026-05-07 14:51 | 53.43628 | -5.13211 | 23369 ft | 407 kts | 95° |
| 2026-05-07 14:52 | 53.43479 | -5.08463 | 23956 ft | 410 kts | 95° |
| 2026-05-07 14:52 | 53.43325 | -5.03675 | 24538 ft | 412 kts | 95° |
| 2026-05-07 14:52 | 53.43170 | -4.98868 | 25129 ft | 414 kts | 96° |
| 2026-05-07 14:52 | 53.43013 | -4.94045 | 25701 ft | 416 kts | 96° |
| 2026-05-07 14:53 | 53.42853 | -4.89184 | 26247 ft | 418 kts | 96° |
| 2026-05-07 14:53 | 53.42692 | -4.84310 | 26802 ft | 420 kts | 96° |
| 2026-05-07 14:53 | 53.42529 | -4.79398 | 27330 ft | 422 kts | 96° |
| 2026-05-07 14:53 | 53.42365 | -4.74479 | 27847 ft | 424 kts | 96° |
| 2026-05-07 14:54 | 53.42199 | -4.69528 | 28349 ft | 427 kts | 96° |
| 2026-05-07 14:54 | 53.42028 | -4.64540 | 28842 ft | 429 kts | 96° |
| 2026-05-07 14:54 | 53.41854 | -4.59541 | 29332 ft | 430 kts | 96° |
| 2026-05-07 14:54 | 53.41675 | -4.54537 | 29834 ft | 432 kts | 96° |
| 2026-05-07 14:55 | 53.41499 | -4.49504 | 30267 ft | 434 kts | 96° |
| 2026-05-07 14:55 | 53.41317 | -4.44439 | 30654 ft | 436 kts | 96° |
| 2026-05-07 14:55 | 53.41133 | -4.39383 | 31144 ft | 434 kts | 96° |
| 2026-05-07 14:55 | 53.40946 | -4.34336 | 31676 ft | 432 kts | 97° |
| 2026-05-07 14:56 | 53.40760 | -4.29317 | 32200 ft | 430 kts | 97° |
| 2026-05-07 14:56 | 53.40567 | -4.24336 | 32697 ft | 429 kts | 97° |
| 2026-05-07 14:56 | 53.40377 | -4.19361 | 33182 ft | 427 kts | 97° |
| 2026-05-07 14:56 | 53.40186 | -4.14405 | 33650 ft | 425 kts | 97° |
| 2026-05-07 14:57 | 53.39998 | -4.09464 | 34086 ft | 424 kts | 97° |
| 2026-05-07 14:57 | 53.39808 | -4.04555 | 34425 ft | 423 kts | 97° |
| 2026-05-07 14:57 | 53.39612 | -3.99628 | 34702 ft | 424 kts | 97° |
| 2026-05-07 14:57 | 53.39412 | -3.94687 | 34952 ft | 426 kts | 97° |
| 2026-05-07 14:58 | 53.39007 | -3.84769 | 35031 ft | 426 kts | 97° |
| 2026-05-07 14:58 | 53.38592 | -3.74878 | 35002 ft | 426 kts | 97° |
| 2026-05-07 14:59 | 53.38044 | -3.65088 | 34996 ft | 423 kts | 105° |
| 2026-05-07 14:59 | 53.36029 | -3.55929 | 34995 ft | 418 kts | 116° |
| 2026-05-07 15:00 | 53.33648 | -3.47077 | 34999 ft | 416 kts | 120° |
| 2026-05-07 15:00 | 53.32051 | -3.43070 | 35005 ft | 413 kts | 131° |
| 2026-05-07 15:00 | 53.30176 | -3.39429 | 35012 ft | 413 kts | 133° |
| 2026-05-07 15:01 | 53.26345 | -3.32287 | 35019 ft | 413 kts | 133° |
| 2026-05-07 15:01 | 53.22530 | -3.25111 | 35023 ft | 413 kts | 133° |
| 2026-05-07 15:02 | 53.18719 | -3.17934 | 35025 ft | 414 kts | 133° |
| 2026-05-07 15:02 | 53.14890 | -3.10741 | 35033 ft | 415 kts | 133° |
| 2026-05-07 15:03 | 53.11059 | -3.03561 | 35024 ft | 414 kts | 133° |
| 2026-05-07 15:03 | 53.07228 | -2.96405 | 35033 ft | 414 kts | 133° |
| 2026-05-07 15:04 | 53.03397 | -2.89269 | 35027 ft | 414 kts | 133° |
| 2026-05-07 15:04 | 52.99558 | -2.82138 | 35027 ft | 414 kts | 133° |
| 2026-05-07 15:05 | 52.95710 | -2.75010 | 35030 ft | 417 kts | 133° |
| 2026-05-07 15:05 | 52.91824 | -2.67836 | 35039 ft | 418 kts | 133° |
| 2026-05-07 15:06 | 52.87935 | -2.60672 | 35037 ft | 418 kts | 133° |
| 2026-05-07 15:06 | 52.84036 | -2.53518 | 35035 ft | 418 kts | 133° |
| 2026-05-07 15:07 | 52.80143 | -2.46391 | 35029 ft | 417 kts | 133° |
| 2026-05-07 15:07 | 52.76249 | -2.39281 | 35038 ft | 417 kts | 133° |
| 2026-05-07 15:08 | 52.72345 | -2.32178 | 35042 ft | 420 kts | 133° |
| 2026-05-07 15:08 | 52.68408 | -2.25047 | 35045 ft | 421 kts | 133° |
| 2026-05-07 15:09 | 52.64466 | -2.17915 | 35053 ft | 421 kts | 133° |
| 2026-05-07 15:09 | 52.60514 | -2.10775 | 35048 ft | 422 kts | 134° |
| 2026-05-07 15:10 | 52.57230 | -2.04858 | 35046 ft | 422 kts | 134° |
| 2026-05-07 15:10 | 52.53264 | -1.97760 | 35040 ft | 422 kts | 134° |
| 2026-05-07 15:11 | 52.49279 | -1.90667 | 35051 ft | 424 kts | 134° |
| 2026-05-07 15:11 | 52.45279 | -1.83525 | 35033 ft | 425 kts | 134° |
| 2026-05-07 15:12 | 52.41277 | -1.76386 | 35042 ft | 425 kts | 134° |
| 2026-05-07 15:12 | 52.37261 | -1.69258 | 35038 ft | 426 kts | 134° |
| 2026-05-07 15:13 | 52.33217 | -1.62184 | 35056 ft | 425 kts | 135° |
| 2026-05-07 15:13 | 52.29117 | -1.55226 | 35100 ft | 425 kts | 135° |
| 2026-05-07 15:14 | 52.25012 | -1.48225 | 35104 ft | 428 kts | 135° |
| 2026-05-07 15:14 | 52.20888 | -1.41215 | 35104 ft | 429 kts | 135° |
| 2026-05-07 15:15 | 52.16759 | -1.34202 | 35109 ft | 429 kts | 135° |
| 2026-05-07 15:15 | 52.12627 | -1.27205 | 35109 ft | 428 kts | 135° |
| 2026-05-07 15:16 | 52.08483 | -1.20236 | 35107 ft | 428 kts | 135° |
| 2026-05-07 15:16 | 52.04342 | -1.13286 | 35127 ft | 427 kts | 135° |
| 2026-05-07 15:17 | 52.00209 | -1.06361 | 35065 ft | 431 kts | 136° |
| 2026-05-07 15:17 | 51.95786 | -0.99797 | 35058 ft | 431 kts | 140° |
| 2026-05-07 15:18 | 51.91295 | -0.93337 | 35045 ft | 432 kts | 140° |
| 2026-05-07 15:18 | 51.86809 | -0.86880 | 35042 ft | 431 kts | 140° |
| 2026-05-07 15:19 | 51.82319 | -0.80434 | 35043 ft | 432 kts | 140° |
| 2026-05-07 15:19 | 51.77813 | -0.73991 | 35041 ft | 435 kts | 141° |
| 2026-05-07 15:20 | 51.73277 | -0.67523 | 35045 ft | 436 kts | 141° |
| 2026-05-07 15:20 | 51.68730 | -0.61057 | 35046 ft | 435 kts | 141° |
| 2026-05-07 15:21 | 51.64220 | -0.54566 | 35061 ft | 436 kts | 137° |
| 2026-05-07 15:21 | 51.62318 | -0.50748 | 35056 ft | 440 kts | 123° |
| 2026-05-07 15:21 | 51.61001 | -0.46283 | 35066 ft | 443 kts | 112° |
| 2026-05-07 15:22 | 51.59116 | -0.36832 | 35067 ft | 444 kts | 109° |
| 2026-05-07 15:22 | 51.57220 | -0.27399 | 35061 ft | 443 kts | 110° |
| 2026-05-07 15:23 | 51.55267 | -0.17960 | 35071 ft | 446 kts | 110° |
| 2026-05-07 15:23 | 51.53286 | -0.08504 | 35063 ft | 446 kts | 110° |
| 2026-05-07 15:24 | 51.51305 | 0.00925 | 35092 ft | 446 kts | 110° |
| 2026-05-07 15:24 | 51.49317 | 0.10346 | 35098 ft | 445 kts | 110° |
| 2026-05-07 15:25 | 51.47315 | 0.19758 | 35117 ft | 445 kts | 111° |
| 2026-05-07 15:25 | 51.45334 | 0.29055 | 35097 ft | 445 kts | 111° |
| 2026-05-07 15:26 | 51.43318 | 0.38434 | 35095 ft | 445 kts | 111° |
| 2026-05-07 15:26 | 51.41290 | 0.47810 | 35084 ft | 446 kts | 111° |
| 2026-05-07 15:27 | 51.39264 | 0.57196 | 35077 ft | 445 kts | 111° |
| 2026-05-07 15:27 | 51.37228 | 0.66552 | 35079 ft | 446 kts | 111° |
| 2026-05-07 15:28 | 51.35164 | 0.75906 | 35075 ft | 446 kts | 111° |
| 2026-05-07 15:28 | 51.33097 | 0.85238 | 35076 ft | 445 kts | 111° |
| 2026-05-07 15:29 | 51.31040 | 0.94552 | 35077 ft | 448 kts | 111° |
| 2026-05-07 15:29 | 51.28973 | 1.03941 | 35072 ft | 448 kts | 110° |
| 2026-05-07 15:30 | 51.27340 | 1.13572 | 35077 ft | 449 kts | 106° |
| 2026-05-07 15:30 | 51.25786 | 1.23232 | 35084 ft | 449 kts | 106° |
| 2026-05-07 15:31 | 51.24211 | 1.32892 | 35079 ft | 449 kts | 106° |
| 2026-05-07 15:31 | 51.22645 | 1.42536 | 35074 ft | 449 kts | 106° |
| 2026-05-07 15:32 | 51.21056 | 1.52173 | 35081 ft | 449 kts | 106° |
| 2026-05-07 15:32 | 51.19461 | 1.61794 | 35086 ft | 449 kts | 106° |
| 2026-05-07 15:33 | 51.17866 | 1.71410 | 35082 ft | 448 kts | 106° |
| 2026-05-07 15:33 | 51.16271 | 1.81007 | 35085 ft | 448 kts | 107° |
| 2026-05-07 15:34 | 51.14657 | 1.90607 | 35075 ft | 448 kts | 107° |
| 2026-05-07 15:34 | 51.13112 | 2.00196 | 35069 ft | 448 kts | 101° |
| 2026-05-07 15:35 | 51.12500 | 2.10091 | 35079 ft | 449 kts | 96° |
| 2026-05-07 15:35 | 51.11994 | 2.20003 | 35085 ft | 449 kts | 96° |
| 2026-05-07 15:36 | 51.11454 | 2.29914 | 35074 ft | 449 kts | 96° |
| 2026-05-07 15:36 | 51.10901 | 2.39816 | 35072 ft | 449 kts | 96° |
| 2026-05-07 15:37 | 51.10345 | 2.49705 | 35072 ft | 449 kts | 96° |
| 2026-05-07 15:37 | 51.09769 | 2.59591 | 35071 ft | 448 kts | 98° |
| 2026-05-07 15:38 | 51.09147 | 2.64436 | 35065 ft | 446 kts | 109° |
| 2026-05-07 15:38 | 51.07884 | 2.68910 | 35073 ft | 443 kts | 123° |
| 2026-05-07 15:38 | 51.04418 | 2.76986 | 35077 ft | 442 kts | 127° |
| 2026-05-07 15:39 | 51.00891 | 2.84985 | 35081 ft | 442 kts | 127° |
| 2026-05-07 15:39 | 50.97368 | 2.93069 | 35077 ft | 442 kts | 127° |
| 2026-05-07 15:40 | 50.93869 | 3.01089 | 35078 ft | 442 kts | 127° |
| 2026-05-07 15:40 | 50.90362 | 3.09106 | 35070 ft | 442 kts | 127° |
| 2026-05-07 15:41 | 50.86853 | 3.17095 | 35072 ft | 442 kts | 127° |
| 2026-05-07 15:41 | 50.83335 | 3.25081 | 35071 ft | 442 kts | 127° |
| 2026-05-07 15:42 | 50.79830 | 3.33020 | 35066 ft | 444 kts | 127° |
| 2026-05-07 15:42 | 50.76283 | 3.41018 | 35073 ft | 445 kts | 127° |
| 2026-05-07 15:43 | 50.72731 | 3.49005 | 35073 ft | 444 kts | 127° |
| 2026-05-07 15:43 | 50.69175 | 3.56984 | 35075 ft | 444 kts | 127° |
| 2026-05-07 15:44 | 50.65622 | 3.64935 | 35075 ft | 444 kts | 127° |
| 2026-05-07 15:44 | 50.62054 | 3.72886 | 35071 ft | 444 kts | 127° |
| 2026-05-07 15:45 | 50.58477 | 3.80836 | 35291 ft | 445 kts | 127° |
| 2026-05-07 15:45 | 50.56726 | 3.84856 | 35605 ft | 446 kts | 125° |
| 2026-05-07 15:45 | 50.55030 | 3.88955 | 35884 ft | 447 kts | 125° |
| 2026-05-07 15:46 | 50.51638 | 3.97165 | 36447 ft | 448 kts | 125° |
| 2026-05-07 15:46 | 50.49938 | 4.01271 | 36728 ft | 448 kts | 125° |
| 2026-05-07 15:46 | 50.48236 | 4.05375 | 36995 ft | 449 kts | 125° |
| 2026-05-07 15:47 | 50.46525 | 4.09494 | 37104 ft | 451 kts | 125° |
| 2026-05-07 15:47 | 50.43100 | 4.17716 | 37095 ft | 450 kts | 125° |
| 2026-05-07 15:48 | 50.39673 | 4.25909 | 37082 ft | 450 kts | 125° |
| 2026-05-07 15:48 | 50.36238 | 4.34097 | 37082 ft | 450 kts | 125° |
| 2026-05-07 15:49 | 50.32793 | 4.42283 | 37074 ft | 450 kts | 126° |
| 2026-05-07 15:49 | 50.29343 | 4.50460 | 37072 ft | 451 kts | 126° |
| 2026-05-07 15:50 | 50.25884 | 4.58628 | 37072 ft | 451 kts | 126° |
| 2026-05-07 15:50 | 50.22422 | 4.66779 | 37069 ft | 450 kts | 126° |
| 2026-05-07 15:51 | 50.18959 | 4.74910 | 37066 ft | 450 kts | 126° |
| 2026-05-07 15:51 | 50.15488 | 4.83031 | 37062 ft | 449 kts | 126° |
| 2026-05-07 15:52 | 50.12580 | 4.89816 | 37060 ft | 449 kts | 126° |
| 2026-05-07 15:52 | 50.09123 | 4.97855 | 37061 ft | 450 kts | 126° |
| 2026-05-07 15:53 | 50.05617 | 5.05999 | 37057 ft | 450 kts | 126° |
| 2026-05-07 15:53 | 50.02120 | 5.14081 | 37053 ft | 450 kts | 126° |
| 2026-05-07 15:54 | 49.98647 | 5.22088 | 37052 ft | 450 kts | 126° |
| 2026-05-07 15:54 | 49.95142 | 5.30140 | 37051 ft | 450 kts | 126° |
| 2026-05-07 15:55 | 49.91633 | 5.38179 | 37053 ft | 450 kts | 126° |
| 2026-05-07 15:55 | 49.88117 | 5.46214 | 37046 ft | 450 kts | 126° |
| 2026-05-07 15:56 | 49.84598 | 5.54228 | 37050 ft | 450 kts | 126° |
| 2026-05-07 15:56 | 49.81072 | 5.62240 | 37042 ft | 450 kts | 126° |
| 2026-05-07 15:57 | 49.77541 | 5.70246 | 37048 ft | 450 kts | 126° |
| 2026-05-07 15:57 | 49.74003 | 5.78235 | 37049 ft | 450 kts | 126° |
| 2026-05-07 15:58 | 49.70453 | 5.86218 | 37050 ft | 450 kts | 126° |
| 2026-05-07 15:58 | 49.66904 | 5.94182 | 37052 ft | 450 kts | 126° |
| 2026-05-07 15:59 | 49.63344 | 6.02147 | 37050 ft | 451 kts | 127° |
| 2026-05-07 15:59 | 49.59780 | 6.10095 | 37055 ft | 450 kts | 127° |
| 2026-05-07 16:00 | 49.56215 | 6.18030 | 37045 ft | 451 kts | 127° |
| 2026-05-07 16:00 | 49.52635 | 6.25962 | 37057 ft | 451 kts | 127° |
| 2026-05-07 16:01 | 49.49043 | 6.33894 | 37047 ft | 452 kts | 127° |
| 2026-05-07 16:01 | 49.47053 | 6.37598 | 37037 ft | 449 kts | 138° |
| 2026-05-07 16:01 | 49.44605 | 6.40532 | 37041 ft | 445 kts | 152° |
| 2026-05-07 16:02 | 49.39012 | 6.44501 | 37046 ft | 442 kts | 159° |
| 2026-05-07 16:02 | 49.33360 | 6.48233 | 37038 ft | 443 kts | 159° |
| 2026-05-07 16:03 | 49.27722 | 6.52042 | 37043 ft | 443 kts | 159° |
| 2026-05-07 16:03 | 49.22082 | 6.55858 | 37040 ft | 443 kts | 159° |
| 2026-05-07 16:04 | 49.16434 | 6.59670 | 37036 ft | 443 kts | 159° |
| 2026-05-07 16:04 | 49.10793 | 6.63468 | 37024 ft | 443 kts | 159° |
| 2026-05-07 16:05 | 49.05133 | 6.67270 | 37042 ft | 445 kts | 159° |
| 2026-05-07 16:05 | 48.99463 | 6.71061 | 37051 ft | 445 kts | 159° |
| 2026-05-07 16:06 | 48.93719 | 6.74551 | 37035 ft | 444 kts | 161° |
| 2026-05-07 16:06 | 48.87949 | 6.77967 | 37038 ft | 446 kts | 161° |
| 2026-05-07 16:07 | 48.82173 | 6.81384 | 37045 ft | 445 kts | 161° |
| 2026-05-07 16:07 | 48.76437 | 6.84771 | 37047 ft | 445 kts | 161° |
| 2026-05-07 16:08 | 48.70659 | 6.88175 | 37044 ft | 445 kts | 161° |
| 2026-05-07 16:08 | 48.64891 | 6.91561 | 37043 ft | 444 kts | 161° |
| 2026-05-07 16:09 | 48.59171 | 6.94916 | 36670 ft | 439 kts | 161° |
| 2026-05-07 16:09 | 48.56323 | 6.96583 | 36116 ft | 439 kts | 161° |
| 2026-05-07 16:09 | 48.53470 | 6.98250 | 35517 ft | 440 kts | 161° |
| 2026-05-07 16:09 | 48.50616 | 6.99915 | 34964 ft | 440 kts | 161° |
| 2026-05-07 16:10 | 48.47764 | 7.01578 | 34450 ft | 439 kts | 161° |
| 2026-05-07 16:10 | 48.44917 | 7.03238 | 34010 ft | 438 kts | 161° |
| 2026-05-07 16:10 | 48.42070 | 7.04894 | 33845 ft | 439 kts | 161° |
| 2026-05-07 16:10 | 48.39246 | 7.06535 | 33352 ft | 434 kts | 161° |
| 2026-05-07 16:11 | 48.36413 | 7.08176 | 32310 ft | 439 kts | 161° |
| 2026-05-07 16:11 | 48.33569 | 7.09821 | 31624 ft | 436 kts | 161° |
| 2026-05-07 16:11 | 48.30751 | 7.11452 | 31140 ft | 431 kts | 161° |
| 2026-05-07 16:11 | 48.27977 | 7.13058 | 30640 ft | 425 kts | 161° |
| 2026-05-07 16:12 | 48.25235 | 7.14643 | 30166 ft | 420 kts | 161° |
| 2026-05-07 16:12 | 48.22523 | 7.16208 | 29617 ft | 414 kts | 161° |
| 2026-05-07 16:12 | 48.19851 | 7.17748 | 29064 ft | 410 kts | 161° |
| 2026-05-07 16:12 | 48.17208 | 7.19269 | 28569 ft | 403 kts | 161° |
| 2026-05-07 16:13 | 48.14610 | 7.20762 | 28106 ft | 397 kts | 161° |
| 2026-05-07 16:13 | 48.12046 | 7.22235 | 27644 ft | 392 kts | 161° |
| 2026-05-07 16:13 | 48.09518 | 7.23685 | 27108 ft | 387 kts | 161° |
| 2026-05-07 16:13 | 48.06996 | 7.25127 | 26162 ft | 389 kts | 161° |
| 2026-05-07 16:14 | 48.04462 | 7.26576 | 25158 ft | 391 kts | 161° |
| 2026-05-07 16:14 | 48.01922 | 7.28027 | 24249 ft | 389 kts | 161° |
| 2026-05-07 16:14 | 47.99410 | 7.29462 | 23490 ft | 383 kts | 161° |
| 2026-05-07 16:14 | 47.96937 | 7.30876 | 22555 ft | 378 kts | 161° |
| 2026-05-07 16:15 | 47.94491 | 7.32270 | 21653 ft | 374 kts | 161° |
| 2026-05-07 16:15 | 47.92081 | 7.33643 | 20872 ft | 368 kts | 161° |
| 2026-05-07 16:15 | 47.89712 | 7.34990 | 20133 ft | 361 kts | 161° |
| 2026-05-07 16:15 | 47.87377 | 7.36317 | 19258 ft | 359 kts | 161° |
| 2026-05-07 16:16 | 47.85046 | 7.37641 | 18428 ft | 357 kts | 161° |
| 2026-05-07 16:16 | 47.82768 | 7.38932 | 17685 ft | 351 kts | 161° |
| 2026-05-07 16:16 | 47.80504 | 7.40220 | 17205 ft | 336 kts | 161° |
| 2026-05-07 16:16 | 47.78390 | 7.41421 | 16877 ft | 325 kts | 161° |
| 2026-05-07 16:17 | 47.76307 | 7.42599 | 16540 ft | 316 kts | 161° |
| 2026-05-07 16:17 | 47.74288 | 7.43740 | 16210 ft | 306 kts | 162° |
| 2026-05-07 16:17 | 47.72315 | 7.44855 | 15901 ft | 302 kts | 162° |
| 2026-05-07 16:17 | 47.70368 | 7.45951 | 15647 ft | 298 kts | 162° |
| 2026-05-07 16:18 | 47.68410 | 7.47054 | 15361 ft | 297 kts | 162° |
| 2026-05-07 16:18 | 47.66505 | 7.48128 | 15063 ft | 297 kts | 162° |
| 2026-05-07 16:18 | 47.64609 | 7.49336 | 14751 ft | 299 kts | 152° |
| 2026-05-07 16:18 | 47.63047 | 7.51386 | 14424 ft | 305 kts | 127° |
| 2026-05-07 16:19 | 47.62127 | 7.54232 | 14109 ft | 309 kts | 111° |
| 2026-05-07 16:19 | 47.61456 | 7.57263 | 13788 ft | 309 kts | 110° |
| 2026-05-07 16:19 | 47.60797 | 7.60292 | 13455 ft | 309 kts | 110° |
| 2026-05-07 16:19 | 47.60121 | 7.63308 | 13130 ft | 308 kts | 111° |
| 2026-05-07 16:20 | 47.59433 | 7.66306 | 12819 ft | 307 kts | 111° |
| 2026-05-07 16:20 | 47.58741 | 7.69287 | 12508 ft | 306 kts | 111° |
| 2026-05-07 16:20 | 47.58044 | 7.72272 | 12175 ft | 309 kts | 111° |
| 2026-05-07 16:20 | 47.57331 | 7.75314 | 11980 ft | 312 kts | 111° |
| 2026-05-07 16:21 | 47.56625 | 7.78321 | 11664 ft | 304 kts | 111° |
| 2026-05-07 16:21 | 47.55943 | 7.81222 | 11401 ft | 293 kts | 111° |
| 2026-05-07 16:21 | 47.55281 | 7.84032 | 10988 ft | 287 kts | 111° |
| 2026-05-07 16:21 | 47.54623 | 7.86817 | 10433 ft | 287 kts | 111° |
| 2026-05-07 16:22 | 47.53963 | 7.89602 | 9926 ft | 286 kts | 111° |
| 2026-05-07 16:22 | 47.53309 | 7.92358 | 9420 ft | 280 kts | 111° |
| 2026-05-07 16:22 | 47.52676 | 7.95031 | 8913 ft | 272 kts | 111° |
| 2026-05-07 16:22 | 47.52053 | 7.97652 | 8346 ft | 268 kts | 111° |
| 2026-05-07 16:23 | 47.51440 | 8.00229 | 7750 ft | 264 kts | 111° |
| 2026-05-07 16:23 | 47.50931 | 8.02830 | 7226 ft | 264 kts | 97° |
| 2026-05-07 16:23 | 47.51074 | 8.05464 | 7006 ft | 249 kts | 69° |
| 2026-05-07 16:23 | 47.51825 | 8.07660 | 6842 ft | 231 kts | 57° |
| 2026-05-07 16:24 | 47.52713 | 8.09668 | 6299 ft | 238 kts | 55° |
| 2026-05-07 16:24 | 47.53610 | 8.11726 | 6016 ft | 238 kts | 56° |
| 2026-05-07 16:24 | 47.54490 | 8.13798 | 5988 ft | 237 kts | 56° |
| 2026-05-07 16:24 | 47.55333 | 8.15811 | 5966 ft | 220 kts | 56° |
| 2026-05-07 16:25 | 47.56105 | 8.17659 | 5967 ft | 207 kts | 56° |
| 2026-05-07 16:25 | 47.56842 | 8.19442 | 5957 ft | 203 kts | 57° |
| 2026-05-07 16:25 | 47.57563 | 8.21204 | 5790 ft | 197 kts | 57° |
| 2026-05-07 16:25 | 47.58292 | 8.22968 | 5405 ft | 199 kts | 56° |
| 2026-05-07 16:26 | 47.59003 | 8.24705 | 5069 ft | 200 kts | 56° |
| 2026-05-07 16:26 | 47.59719 | 8.26458 | 4765 ft | 198 kts | 56° |
| 2026-05-07 16:26 | 47.60424 | 8.28189 | 4457 ft | 194 kts | 57° |
| 2026-05-07 16:26 | 47.60895 | 8.29338 | 4204 ft | 193 kts | 56° |
| 2026-05-07 16:27 | 47.61531 | 8.31777 | 3962 ft | 198 kts | 88° |
| 2026-05-07 16:27 | 47.61186 | 8.33742 | 3967 ft | 199 kts | 110° |
| 2026-05-07 16:27 | 47.60642 | 8.35625 | 3987 ft | 198 kts | 117° |
| 2026-05-07 16:27 | 47.59894 | 8.37322 | 3990 ft | 197 kts | 128° |
| 2026-05-07 16:28 | 47.58993 | 8.38823 | 4009 ft | 189 kts | 134° |
| 2026-05-07 16:28 | 47.58061 | 8.40153 | 3972 ft | 184 kts | 137° |
| 2026-05-07 16:28 | 47.57152 | 8.41407 | 3822 ft | 165 kts | 137° |
| 2026-05-07 16:28 | 47.56381 | 8.42462 | 3595 ft | 143 kts | 137° |
| 2026-05-07 16:29 | 47.55657 | 8.43453 | 3410 ft | 141 kts | 137° |
| 2026-05-07 16:29 | 47.54941 | 8.44431 | 3240 ft | 139 kts | 137° |
| 2026-05-07 16:29 | 47.54228 | 8.45405 | 3056 ft | 138 kts | 137° |
| 2026-05-07 16:29 | 47.53520 | 8.46372 | 2875 ft | 139 kts | 137° |
| 2026-05-07 16:30 | 47.52809 | 8.47342 | 2696 ft | 138 kts | 137° |
| 2026-05-07 16:30 | 47.52105 | 8.48303 | 2501 ft | 138 kts | 137° |
| 2026-05-07 16:30 | 47.51397 | 8.49262 | 2300 ft | 138 kts | 137° |
| 2026-05-07 16:30 | 47.50688 | 8.50213 | 2120 ft | 137 kts | 136° |
| 2026-05-07 16:31 | 47.49986 | 8.51176 | 1936 ft | 138 kts | 135° |
| 2026-05-07 16:31 | 47.49287 | 8.52142 | 1748 ft | 137 kts | 136° |
| 2026-05-07 16:31 | 47.48582 | 8.53100 | 1572 ft | 139 kts | 136° |
| 2026-05-07 16:31 | 47.47873 | 8.54060 | 1413 ft | 134 kts | 134° |
| 2026-05-07 16:32 | 47.47307 | 8.54841 | 1399 ft | 82 kts | 138° |
| 2026-05-07 16:32 | 47.47016 | 8.55239 | 1396 ft | 45 kts | 137° |
| 2026-05-07 16:32 | 47.46784 | 8.55553 | 1403 ft | 41 kts | 142° |
| 2026-05-07 16:32 | 47.46628 | 8.55667 | 1405 ft | 5 kts | 161° |
| 2026-05-07 16:33 | 47.46584 | 8.55681 | 1407 ft | 8 kts | 167° |
| 2026-05-07 16:33 | 47.46515 | 8.55705 | 1402 ft | 12 kts | 167° |
| 2026-05-07 16:33 | 47.46422 | 8.55737 | 1402 ft | 16 kts | 167° |
| 2026-05-07 16:33 | 47.46322 | 8.55841 | 1409 ft | 20 kts | 136° |
| 2026-05-07 16:34 | 47.46227 | 8.55971 | 1412 ft | 16 kts | 138° |
| 2026-05-07 16:34 | 47.46108 | 8.55990 | 1412 ft | 20 kts | 185° |
| 2026-05-07 16:34 | 47.45978 | 8.55972 | 1411 ft | 14 kts | 189° |
| 2026-05-07 16:34 | 47.45941 | 8.55851 | 1410 ft | 15 kts | 272° |
| 2026-05-07 16:35 | 47.45950 | 8.55699 | 1412 ft | 7 kts | 275° |
| 2026-05-07 16:35 | 47.45966 | 8.55634 | 1413 ft | 8 kts | 347° |
| 2026-05-07 16:35 | 47.46020 | 8.55640 | 1406 ft | 7 kts | 5° |
| 2026-05-07 16:35 | 47.46040 | 8.55643 | 1407 ft | 2 kts | 7° |
| 2026-05-07 16:36 | 47.46046 | 8.55644 | 1407 ft | 0 kts | 7° |